sensor_id;sensor_type;location;lat;lon;timestamp;temperature;humidity
3246;DHT22;1635;48.000;10.582;2022-09-09T00:04:38;11.60;99.90
3246;DHT22;1635;48.000;10.582;2022-09-09T00:07:21;11.70;99.90
3246;DHT22;1635;48.000;10.582;2022-09-09T00:10:16;11.70;99.90
3246;DHT22;1635;48.000;10.582;2022-09-09T00:15:39;11.70;99.90
3246;DHT22;1635;48.000;10.582;2022-09-09T00:18:11;11.60;99.90
3246;DHT22;1635;48.000;10.582;2022-09-09T00:21:01;11.60;99.90
3246;DHT22;1635;48.000;10.582;2022-09-09T00:23:47;11.70;99.90
3246;DHT22;1635;48.000;10.582;2022-09-09T00:26:42;11.70;99.90
3246;DHT22;1635;48.000;10.582;2022-09-09T00:29:35;11.70;99.90
3246;DHT22;1635;48.000;10.582;2022-09-09T00:32:17;11.80;99.90
3246;DHT22;1635;48.000;10.582;2022-09-09T00:35:01;11.90;99.90
3246;DHT22;1635;48.000;10.582;2022-09-09T00:37:29;12.00;99.90
3246;DHT22;1635;48.000;10.582;2022-09-09T00:40:02;12.00;99.90
3246;DHT22;1635;48.000;10.582;2022-09-09T00:43:01;12.10;99.90
3246;DHT22;1635;48.000;10.582;2022-09-09T00:48:41;12.10;99.90
3246;DHT22;1635;48.000;10.582;2022-09-09T00:57:17;12.30;99.90
3246;DHT22;1635;48.000;10.582;2022-09-09T00:59:52;12.30;99.90
3246;DHT22;1635;48.000;10.582;2022-09-09T01:05:12;12.30;99.90
3246;DHT22;1635;48.000;10.582;2022-09-09T01:07:44;12.30;99.90
3246;DHT22;1635;48.000;10.582;2022-09-09T01:10:29;12.40;99.90
3246;DHT22;1635;48.000;10.582;2022-09-09T01:13:00;12.50;99.90
3246;DHT22;1635;48.000;10.582;2022-09-09T01:15:32;12.50;99.90
3246;DHT22;1635;48.000;10.582;2022-09-09T01:18:13;12.40;99.90
3246;DHT22;1635;48.000;10.582;2022-09-09T01:27:04;12.50;99.90
3246;DHT22;1635;48.000;10.582;2022-09-09T01:29:33;12.50;99.90
3246;DHT22;1635;48.000;10.582;2022-09-09T01:32:37;12.50;99.90
3246;DHT22;1635;48.000;10.582;2022-09-09T01:35:52;12.50;99.90
3246;DHT22;1635;48.000;10.582;2022-09-09T01:38:02;12.50;99.90
3246;DHT22;1635;48.000;10.582;2022-09-09T01:40:31;12.50;99.90
3246;DHT22;1635;48.000;10.582;2022-09-09T01:42:59;12.50;99.90
3246;DHT22;1635;48.000;10.582;2022-09-09T01:45:30;12.40;99.90
3246;DHT22;1635;48.000;10.582;2022-09-09T01:47:58;12.40;99.90
3246;DHT22;1635;48.000;10.582;2022-09-09T01:50:43;12.50;99.90
3246;DHT22;1635;48.000;10.582;2022-09-09T01:53:12;12.50;99.90
3246;DHT22;1635;48.000;10.582;2022-09-09T01:55:44;12.50;99.90
3246;DHT22;1635;48.000;10.582;2022-09-09T02:01:33;12.40;99.90
3246;DHT22;1635;48.000;10.582;2022-09-09T02:06:55;12.20;99.90
3246;DHT22;1635;48.000;10.582;2022-09-09T02:09:29;12.10;99.90
3246;DHT22;1635;48.000;10.582;2022-09-09T02:12:11;12.10;99.90
3246;DHT22;1635;48.000;10.582;2022-09-09T02:14:56;12.20;99.90
3246;DHT22;1635;48.000;10.582;2022-09-09T02:17:35;12.20;99.90
3246;DHT22;1635;48.000;10.582;2022-09-09T02:20:12;12.20;99.90
3246;DHT22;1635;48.000;10.582;2022-09-09T02:22:50;12.10;99.90
3246;DHT22;1635;48.000;10.582;2022-09-09T02:25:22;12.00;99.90
3246;DHT22;1635;48.000;10.582;2022-09-09T02:27:53;11.90;99.90
3246;DHT22;1635;48.000;10.582;2022-09-09T02:30:21;11.90;99.90
3246;DHT22;1635;48.000;10.582;2022-09-09T02:32:58;11.90;99.90
3246;DHT22;1635;48.000;10.582;2022-09-09T02:35:45;12.00;99.90
3246;DHT22;1635;48.000;10.582;2022-09-09T02:38:19;11.90;99.90
3246;DHT22;1635;48.000;10.582;2022-09-09T02:40:58;11.80;99.90
3246;DHT22;1635;48.000;10.582;2022-09-09T02:43:31;11.70;99.90
3246;DHT22;1635;48.000;10.582;2022-09-09T02:54:28;11.50;99.90
3246;DHT22;1635;48.000;10.582;2022-09-09T02:57:13;11.50;99.90
3246;DHT22;1635;48.000;10.582;2022-09-09T02:59:46;11.50;99.90
3246;DHT22;1635;48.000;10.582;2022-09-09T03:02:14;11.50;99.90
3246;DHT22;1635;48.000;10.582;2022-09-09T03:04:46;11.50;99.90
3246;DHT22;1635;48.000;10.582;2022-09-09T03:07:22;11.40;99.90
3246;DHT22;1635;48.000;10.582;2022-09-09T03:09:51;11.40;99.90
3246;DHT22;1635;48.000;10.582;2022-09-09T03:12:24;11.50;99.90
3246;DHT22;1635;48.000;10.582;2022-09-09T03:14:51;11.60;99.90
3246;DHT22;1635;48.000;10.582;2022-09-09T03:17:20;11.70;99.90
3246;DHT22;1635;48.000;10.582;2022-09-09T03:19:52;11.60;99.90
3246;DHT22;1635;48.000;10.582;2022-09-09T03:22:22;11.60;99.90
3246;DHT22;1635;48.000;10.582;2022-09-09T03:24:51;11.70;99.90
3246;DHT22;1635;48.000;10.582;2022-09-09T03:27:19;11.80;99.90
3246;DHT22;1635;48.000;10.582;2022-09-09T03:29:47;11.80;99.90
3246;DHT22;1635;48.000;10.582;2022-09-09T03:32:22;11.80;99.90
3246;DHT22;1635;48.000;10.582;2022-09-09T03:34:49;11.90;99.90
3246;DHT22;1635;48.000;10.582;2022-09-09T03:37:19;11.90;99.90
3246;DHT22;1635;48.000;10.582;2022-09-09T03:39:48;11.90;99.90
3246;DHT22;1635;48.000;10.582;2022-09-09T03:42:18;11.80;99.90
3246;DHT22;1635;48.000;10.582;2022-09-09T03:44:49;11.80;99.90
3246;DHT22;1635;48.000;10.582;2022-09-09T03:47:21;11.80;99.90
3246;DHT22;1635;48.000;10.582;2022-09-09T03:49:51;11.70;99.90
3246;DHT22;1635;48.000;10.582;2022-09-09T03:52:20;11.70;99.90
3246;DHT22;1635;48.000;10.582;2022-09-09T03:54:52;11.70;99.90
3246;DHT22;1635;48.000;10.582;2022-09-09T03:57:20;11.60;99.90
3246;DHT22;1635;48.000;10.582;2022-09-09T03:59:49;11.60;99.90
3246;DHT22;1635;48.000;10.582;2022-09-09T04:02:16;11.50;99.90
3246;DHT22;1635;48.000;10.582;2022-09-09T04:04:45;11.40;99.90
3246;DHT22;1635;48.000;10.582;2022-09-09T04:07:12;11.40;99.90
3246;DHT22;1635;48.000;10.582;2022-09-09T04:09:41;11.40;99.90
3246;DHT22;1635;48.000;10.582;2022-09-09T04:12:08;11.30;99.90
3246;DHT22;1635;48.000;10.582;2022-09-09T04:14:38;11.20;99.90
3246;DHT22;1635;48.000;10.582;2022-09-09T04:17:06;11.20;99.90
3246;DHT22;1635;48.000;10.582;2022-09-09T04:19:34;11.20;99.90
3246;DHT22;1635;48.000;10.582;2022-09-09T04:22:02;11.20;99.90
3246;DHT22;1635;48.000;10.582;2022-09-09T04:24:30;11.30;99.90
3246;DHT22;1635;48.000;10.582;2022-09-09T04:26:59;11.30;99.90
3246;DHT22;1635;48.000;10.582;2022-09-09T04:29:28;11.30;99.90
3246;DHT22;1635;48.000;10.582;2022-09-09T04:31:55;11.30;99.90
3246;DHT22;1635;48.000;10.582;2022-09-09T04:34:23;11.40;99.90
3246;DHT22;1635;48.000;10.582;2022-09-09T04:36:53;11.40;99.90
3246;DHT22;1635;48.000;10.582;2022-09-09T04:39:22;11.50;99.90
3246;DHT22;1635;48.000;10.582;2022-09-09T04:41:50;11.50;99.90
3246;DHT22;1635;48.000;10.582;2022-09-09T04:44:18;11.60;99.90
3246;DHT22;1635;48.000;10.582;2022-09-09T04:46:47;11.60;99.90
3246;DHT22;1635;48.000;10.582;2022-09-09T04:49:15;11.70;99.90
3246;DHT22;1635;48.000;10.582;2022-09-09T04:51:44;11.70;99.90
3246;DHT22;1635;48.000;10.582;2022-09-09T04:54:12;11.70;99.90
3246;DHT22;1635;48.000;10.582;2022-09-09T04:56:43;11.80;99.90
3246;DHT22;1635;48.000;10.582;2022-09-09T04:59:10;11.90;99.90
3246;DHT22;1635;48.000;10.582;2022-09-09T05:01:45;12.00;99.90
3246;DHT22;1635;48.000;10.582;2022-09-09T05:04:12;12.20;99.90
3246;DHT22;1635;48.000;10.582;2022-09-09T05:06:42;12.20;99.90
3246;DHT22;1635;48.000;10.582;2022-09-09T05:09:12;12.20;99.90
3246;DHT22;1635;48.000;10.582;2022-09-09T05:11:40;12.20;99.90
3246;DHT22;1635;48.000;10.582;2022-09-09T05:14:15;12.30;99.90
3246;DHT22;1635;48.000;10.582;2022-09-09T05:16:46;12.50;99.90
3246;DHT22;1635;48.000;10.582;2022-09-09T05:19:14;12.60;99.90
3246;DHT22;1635;48.000;10.582;2022-09-09T05:21:45;12.80;99.90
3246;DHT22;1635;48.000;10.582;2022-09-09T05:24:15;13.00;99.90
3246;DHT22;1635;48.000;10.582;2022-09-09T05:26:46;13.20;99.90
3246;DHT22;1635;48.000;10.582;2022-09-09T05:29:14;13.50;99.90
3246;DHT22;1635;48.000;10.582;2022-09-09T05:31:42;13.70;99.90
3246;DHT22;1635;48.000;10.582;2022-09-09T05:34:14;14.00;99.90
3246;DHT22;1635;48.000;10.582;2022-09-09T05:36:42;14.30;99.90
3246;DHT22;1635;48.000;10.582;2022-09-09T05:39:11;14.50;99.90
3246;DHT22;1635;48.000;10.582;2022-09-09T05:41:38;14.60;99.90
3246;DHT22;1635;48.000;10.582;2022-09-09T05:44:07;14.90;99.90
3246;DHT22;1635;48.000;10.582;2022-09-09T05:46:37;15.00;99.90
3246;DHT22;1635;48.000;10.582;2022-09-09T05:49:05;15.10;99.90
3246;DHT22;1635;48.000;10.582;2022-09-09T05:51:34;15.20;99.90
3246;DHT22;1635;48.000;10.582;2022-09-09T05:54:07;15.20;99.90
3246;DHT22;1635;48.000;10.582;2022-09-09T05:56:40;15.30;99.90
3246;DHT22;1635;48.000;10.582;2022-09-09T05:59:08;15.40;99.90
3246;DHT22;1635;48.000;10.582;2022-09-09T06:01:38;15.40;99.90
3246;DHT22;1635;48.000;10.582;2022-09-09T06:04:09;15.50;99.90
3246;DHT22;1635;48.000;10.582;2022-09-09T06:06:40;15.50;99.90
3246;DHT22;1635;48.000;10.582;2022-09-09T06:09:12;15.50;99.90
3246;DHT22;1635;48.000;10.582;2022-09-09T06:11:43;15.60;99.90
3246;DHT22;1635;48.000;10.582;2022-09-09T06:14:11;15.60;99.90
3246;DHT22;1635;48.000;10.582;2022-09-09T06:16:40;15.70;99.90
3246;DHT22;1635;48.000;10.582;2022-09-09T06:19:18;15.70;99.90
3246;DHT22;1635;48.000;10.582;2022-09-09T06:21:48;15.80;99.90
3246;DHT22;1635;48.000;10.582;2022-09-09T06:24:18;15.80;99.90
3246;DHT22;1635;48.000;10.582;2022-09-09T06:26:48;15.80;99.90
3246;DHT22;1635;48.000;10.582;2022-09-09T06:29:20;15.80;99.90
3246;DHT22;1635;48.000;10.582;2022-09-09T06:31:49;15.90;99.90
3246;DHT22;1635;48.000;10.582;2022-09-09T06:34:20;15.90;99.90
3246;DHT22;1635;48.000;10.582;2022-09-09T06:36:52;15.90;99.90
3246;DHT22;1635;48.000;10.582;2022-09-09T06:39:21;15.90;99.90
3246;DHT22;1635;48.000;10.582;2022-09-09T06:41:49;16.00;99.90
3246;DHT22;1635;48.000;10.582;2022-09-09T06:44:39;16.10;99.90
3246;DHT22;1635;48.000;10.582;2022-09-09T06:47:14;16.10;99.90
3246;DHT22;1635;48.000;10.582;2022-09-09T06:49:43;16.10;99.90
3246;DHT22;1635;48.000;10.582;2022-09-09T06:52:14;16.20;99.90
3246;DHT22;1635;48.000;10.582;2022-09-09T06:54:42;16.20;99.90
3246;DHT22;1635;48.000;10.582;2022-09-09T06:57:09;16.20;99.90
3246;DHT22;1635;48.000;10.582;2022-09-09T06:59:57;16.20;99.90
3246;DHT22;1635;48.000;10.582;2022-09-09T07:02:25;16.20;99.90
3246;DHT22;1635;48.000;10.582;2022-09-09T07:04:53;16.20;99.90
3246;DHT22;1635;48.000;10.582;2022-09-09T07:07:21;16.30;99.90
3246;DHT22;1635;48.000;10.582;2022-09-09T07:09:50;16.20;99.90
3246;DHT22;1635;48.000;10.582;2022-09-09T07:12:19;16.30;99.90
3246;DHT22;1635;48.000;10.582;2022-09-09T07:14:54;16.40;99.90
3246;DHT22;1635;48.000;10.582;2022-09-09T07:17:27;16.50;99.90
3246;DHT22;1635;48.000;10.582;2022-09-09T07:20:00;16.60;99.90
3246;DHT22;1635;48.000;10.582;2022-09-09T07:22:28;16.80;99.90
3246;DHT22;1635;48.000;10.582;2022-09-09T07:24:57;16.80;99.90
3246;DHT22;1635;48.000;10.582;2022-09-09T07:27:25;16.80;99.90
3246;DHT22;1635;48.000;10.582;2022-09-09T07:29:54;16.70;99.90
3246;DHT22;1635;48.000;10.582;2022-09-09T07:32:23;16.70;99.90
3246;DHT22;1635;48.000;10.582;2022-09-09T07:34:52;16.70;99.90
3246;DHT22;1635;48.000;10.582;2022-09-09T07:37:21;16.70;99.90
3246;DHT22;1635;48.000;10.582;2022-09-09T07:39:49;16.70;99.90
3246;DHT22;1635;48.000;10.582;2022-09-09T07:42:19;16.70;99.90
3246;DHT22;1635;48.000;10.582;2022-09-09T07:44:46;16.80;99.90
3246;DHT22;1635;48.000;10.582;2022-09-09T07:47:18;17.00;99.90
3246;DHT22;1635;48.000;10.582;2022-09-09T07:49:47;17.00;99.90
3246;DHT22;1635;48.000;10.582;2022-09-09T07:52:22;17.00;99.90
3246;DHT22;1635;48.000;10.582;2022-09-09T07:54:53;17.10;99.90
3246;DHT22;1635;48.000;10.582;2022-09-09T07:57:22;17.10;99.90
3246;DHT22;1635;48.000;10.582;2022-09-09T07:59:51;17.10;99.90
3246;DHT22;1635;48.000;10.582;2022-09-09T08:02:20;17.20;99.90
3246;DHT22;1635;48.000;10.582;2022-09-09T08:04:47;17.20;99.90
3246;DHT22;1635;48.000;10.582;2022-09-09T08:07:18;17.20;99.90
3246;DHT22;1635;48.000;10.582;2022-09-09T08:09:52;17.30;99.90
3246;DHT22;1635;48.000;10.582;2022-09-09T08:12:25;17.40;99.90
3246;DHT22;1635;48.000;10.582;2022-09-09T08:14:54;17.50;99.90
3246;DHT22;1635;48.000;10.582;2022-09-09T08:17:24;17.70;99.90
3246;DHT22;1635;48.000;10.582;2022-09-09T08:19:53;17.80;99.90
3246;DHT22;1635;48.000;10.582;2022-09-09T08:22:24;17.80;99.90
3246;DHT22;1635;48.000;10.582;2022-09-09T08:24:55;17.80;99.90
3246;DHT22;1635;48.000;10.582;2022-09-09T08:27:23;17.80;99.90
3246;DHT22;1635;48.000;10.582;2022-09-09T08:29:54;17.80;99.90
3246;DHT22;1635;48.000;10.582;2022-09-09T08:32:23;17.90;99.90
3246;DHT22;1635;48.000;10.582;2022-09-09T08:34:52;17.90;99.90
3246;DHT22;1635;48.000;10.582;2022-09-09T08:37:22;17.90;99.90
3246;DHT22;1635;48.000;10.582;2022-09-09T08:39:49;17.90;99.90
3246;DHT22;1635;48.000;10.582;2022-09-09T08:42:56;17.90;99.90
3246;DHT22;1635;48.000;10.582;2022-09-09T08:45:42;17.70;99.90
3246;DHT22;1635;48.000;10.582;2022-09-09T08:51:27;17.30;99.90
3246;DHT22;1635;48.000;10.582;2022-09-09T08:53:59;17.10;99.90
3246;DHT22;1635;48.000;10.582;2022-09-09T08:56:31;16.90;99.90
3246;DHT22;1635;48.000;10.582;2022-09-09T08:59:02;16.80;99.90
3246;DHT22;1635;48.000;10.582;2022-09-09T09:01:59;16.70;99.90
3246;DHT22;1635;48.000;10.582;2022-09-09T09:13:44;16.60;99.90
3246;DHT22;1635;48.000;10.582;2022-09-09T09:16:34;16.80;99.90
3246;DHT22;1635;48.000;10.582;2022-09-09T09:19:05;16.90;99.90
3246;DHT22;1635;48.000;10.582;2022-09-09T09:21:51;16.90;99.90
3246;DHT22;1635;48.000;10.582;2022-09-09T09:24:27;17.00;99.90
3246;DHT22;1635;48.000;10.582;2022-09-09T09:27:04;17.30;99.90
3246;DHT22;1635;48.000;10.582;2022-09-09T09:29:36;17.50;99.90
3246;DHT22;1635;48.000;10.582;2022-09-09T09:32:24;17.50;99.90
3246;DHT22;1635;48.000;10.582;2022-09-09T09:34:56;17.70;99.90
3246;DHT22;1635;48.000;10.582;2022-09-09T09:37:30;17.80;99.90
3246;DHT22;1635;48.000;10.582;2022-09-09T09:40:15;17.90;99.90
3246;DHT22;1635;48.000;10.582;2022-09-09T09:42:57;18.00;99.90
3246;DHT22;1635;48.000;10.582;2022-09-09T09:45:40;18.00;99.90
3246;DHT22;1635;48.000;10.582;2022-09-09T09:48:22;17.80;99.90
3246;DHT22;1635;48.000;10.582;2022-09-09T09:51:06;17.60;99.90
3246;DHT22;1635;48.000;10.582;2022-09-09T09:53:36;17.50;99.90
3246;DHT22;1635;48.000;10.582;2022-09-09T09:56:13;17.40;99.90
3246;DHT22;1635;48.000;10.582;2022-09-09T09:58:51;17.20;99.90
3246;DHT22;1635;48.000;10.582;2022-09-09T10:01:25;17.00;99.90
3246;DHT22;1635;48.000;10.582;2022-09-09T10:04:16;16.60;99.90
3246;DHT22;1635;48.000;10.582;2022-09-09T10:06:47;16.30;99.90
3246;DHT22;1635;48.000;10.582;2022-09-09T10:09:31;16.10;99.90
3246;DHT22;1635;48.000;10.582;2022-09-09T10:18:22;15.90;99.90
3246;DHT22;1635;48.000;10.582;2022-09-09T10:21:18;15.70;99.90
3246;DHT22;1635;48.000;10.582;2022-09-09T10:26:47;15.70;99.90
3246;DHT22;1635;48.000;10.582;2022-09-09T10:29:33;15.70;99.90
3246;DHT22;1635;48.000;10.582;2022-09-09T10:35:30;16.10;99.90
3246;DHT22;1635;48.000;10.582;2022-09-09T10:38:16;16.40;99.90
3246;DHT22;1635;48.000;10.582;2022-09-09T10:55:11;18.50;99.90
3246;DHT22;1635;48.000;10.582;2022-09-09T10:57:46;18.20;99.90
3246;DHT22;1635;48.000;10.582;2022-09-09T11:00:38;18.20;99.90
3246;DHT22;1635;48.000;10.582;2022-09-09T11:03:20;18.10;99.90
3246;DHT22;1635;48.000;10.582;2022-09-09T11:06:01;18.40;99.90
3246;DHT22;1635;48.000;10.582;2022-09-09T11:08:35;18.50;99.90
3246;DHT22;1635;48.000;10.582;2022-09-09T11:11:30;18.80;99.90
3246;DHT22;1635;48.000;10.582;2022-09-09T11:14:14;19.10;99.90
3246;DHT22;1635;48.000;10.582;2022-09-09T11:16:53;19.40;99.90
3246;DHT22;1635;48.000;10.582;2022-09-09T11:19:33;19.90;99.90
3246;DHT22;1635;48.000;10.582;2022-09-09T11:22:14;20.30;99.90
3246;DHT22;1635;48.000;10.582;2022-09-09T11:24:49;20.40;99.90
3246;DHT22;1635;48.000;10.582;2022-09-09T11:27:42;20.80;99.90
3246;DHT22;1635;48.000;10.582;2022-09-09T11:30:54;21.20;99.90
3246;DHT22;1635;48.000;10.582;2022-09-09T11:34:01;21.60;99.90
3246;DHT22;1635;48.000;10.582;2022-09-09T11:42:19;20.50;99.90
3246;DHT22;1635;48.000;10.582;2022-09-09T11:44:47;20.30;99.90
3246;DHT22;1635;48.000;10.582;2022-09-09T11:47:30;20.10;99.90
3246;DHT22;1635;48.000;10.582;2022-09-09T11:50:32;19.80;99.90
3246;DHT22;1635;48.000;10.582;2022-09-09T11:55:40;19.40;99.90
3246;DHT22;1635;48.000;10.582;2022-09-09T12:00:42;19.40;99.90
3246;DHT22;1635;48.000;10.582;2022-09-09T12:08:43;19.80;99.90
3246;DHT22;1635;48.000;10.582;2022-09-09T12:11:24;19.70;99.90
3246;DHT22;1635;48.000;10.582;2022-09-09T12:13:54;19.60;99.90
3246;DHT22;1635;48.000;10.582;2022-09-09T12:16:52;19.30;99.90
3246;DHT22;1635;48.000;10.582;2022-09-09T12:19:23;19.40;99.90
3246;DHT22;1635;48.000;10.582;2022-09-09T12:22:35;19.60;99.90
3246;DHT22;1635;48.000;10.582;2022-09-09T12:25:35;20.10;99.90
3246;DHT22;1635;48.000;10.582;2022-09-09T12:28:20;20.90;99.90
3246;DHT22;1635;48.000;10.582;2022-09-09T12:30:59;21.80;99.90
3246;DHT22;1635;48.000;10.582;2022-09-09T12:33:39;21.60;99.90
3246;DHT22;1635;48.000;10.582;2022-09-09T12:36:35;21.60;99.90
3246;DHT22;1635;48.000;10.582;2022-09-09T12:39:15;22.20;99.90
3246;DHT22;1635;48.000;10.582;2022-09-09T12:41:52;22.40;99.90
3246;DHT22;1635;48.000;10.582;2022-09-09T12:44:26;22.10;99.90
3246;DHT22;1635;48.000;10.582;2022-09-09T12:47:01;21.40;99.90
3246;DHT22;1635;48.000;10.582;2022-09-09T12:49:36;20.90;99.90
3246;DHT22;1635;48.000;10.582;2022-09-09T12:52:25;21.00;99.90
3246;DHT22;1635;48.000;10.582;2022-09-09T12:54:54;21.30;99.90
3246;DHT22;1635;48.000;10.582;2022-09-09T12:57:26;22.10;99.90
3246;DHT22;1635;48.000;10.582;2022-09-09T13:00:05;23.90;99.90
3246;DHT22;1635;48.000;10.582;2022-09-09T13:02:33;25.30;99.90
3246;DHT22;1635;48.000;10.582;2022-09-09T13:05:16;25.70;99.90
3246;DHT22;1635;48.000;10.582;2022-09-09T13:07:45;25.80;99.90
3246;DHT22;1635;48.000;10.582;2022-09-09T13:10:19;25.20;99.90
3246;DHT22;1635;48.000;10.582;2022-09-09T13:13:10;24.10;99.90
3246;DHT22;1635;48.000;10.582;2022-09-09T13:15:40;23.30;99.90
3246;DHT22;1635;48.000;10.582;2022-09-09T13:18:17;23.50;99.90
3246;DHT22;1635;48.000;10.582;2022-09-09T13:20:48;23.40;99.90
3246;DHT22;1635;48.000;10.582;2022-09-09T13:23:18;22.90;99.90
3246;DHT22;1635;48.000;10.582;2022-09-09T13:26:20;22.30;99.90
3246;DHT22;1635;48.000;10.582;2022-09-09T13:28:46;21.80;99.90
3246;DHT22;1635;48.000;10.582;2022-09-09T13:31:28;21.20;99.90
3246;DHT22;1635;48.000;10.582;2022-09-09T13:33:56;20.60;99.90
3246;DHT22;1635;48.000;10.582;2022-09-09T13:36:30;20.30;99.90
3246;DHT22;1635;48.000;10.582;2022-09-09T13:38:59;20.30;99.90
3246;DHT22;1635;48.000;10.582;2022-09-09T13:41:35;20.10;99.90
3246;DHT22;1635;48.000;10.582;2022-09-09T13:44:04;20.10;99.90
3246;DHT22;1635;48.000;10.582;2022-09-09T13:46:39;20.30;99.90
3246;DHT22;1635;48.000;10.582;2022-09-09T13:51:41;21.40;99.90
3246;DHT22;1635;48.000;10.582;2022-09-09T13:54:11;21.40;99.90
3246;DHT22;1635;48.000;10.582;2022-09-09T13:56:39;21.60;99.90
3246;DHT22;1635;48.000;10.582;2022-09-09T13:59:13;21.70;99.90
3246;DHT22;1635;48.000;10.582;2022-09-09T14:01:41;23.20;99.90
3246;DHT22;1635;48.000;10.582;2022-09-09T14:04:10;24.10;99.90
3246;DHT22;1635;48.000;10.582;2022-09-09T14:06:38;24.60;99.90
3246;DHT22;1635;48.000;10.582;2022-09-09T14:09:10;25.30;99.90
3246;DHT22;1635;48.000;10.582;2022-09-09T14:11:38;25.50;99.90
3246;DHT22;1635;48.000;10.582;2022-09-09T14:14:06;25.30;99.90
3246;DHT22;1635;48.000;10.582;2022-09-09T14:16:34;24.40;99.90
3246;DHT22;1635;48.000;10.582;2022-09-09T14:19:02;23.40;99.90
3246;DHT22;1635;48.000;10.582;2022-09-09T14:21:30;22.50;99.90
3246;DHT22;1635;48.000;10.582;2022-09-09T14:23:58;21.70;99.90
3246;DHT22;1635;48.000;10.582;2022-09-09T14:26:25;21.20;99.90
3246;DHT22;1635;48.000;10.582;2022-09-09T14:28:54;21.00;99.90
3246;DHT22;1635;48.000;10.582;2022-09-09T14:31:23;20.90;99.90
3246;DHT22;1635;48.000;10.582;2022-09-09T14:33:51;21.00;99.90
3246;DHT22;1635;48.000;10.582;2022-09-09T14:36:20;21.10;99.90
3246;DHT22;1635;48.000;10.582;2022-09-09T14:38:48;21.10;99.90
3246;DHT22;1635;48.000;10.582;2022-09-09T14:41:17;21.20;99.90
3246;DHT22;1635;48.000;10.582;2022-09-09T14:43:46;21.50;99.90
3246;DHT22;1635;48.000;10.582;2022-09-09T14:46:16;21.30;99.90
3246;DHT22;1635;48.000;10.582;2022-09-09T14:48:46;21.20;99.90
3246;DHT22;1635;48.000;10.582;2022-09-09T14:53:45;20.60;99.90
3246;DHT22;1635;48.000;10.582;2022-09-09T14:56:15;20.60;99.90
3246;DHT22;1635;48.000;10.582;2022-09-09T14:58:45;20.50;99.90
3246;DHT22;1635;48.000;10.582;2022-09-09T15:01:16;20.50;99.90
3246;DHT22;1635;48.000;10.582;2022-09-09T15:03:56;20.30;99.90
3246;DHT22;1635;48.000;10.582;2022-09-09T15:06:27;20.00;99.90
3246;DHT22;1635;48.000;10.582;2022-09-09T15:08:55;19.90;99.90
3246;DHT22;1635;48.000;10.582;2022-09-09T15:11:30;19.80;99.90
3246;DHT22;1635;48.000;10.582;2022-09-09T15:13:58;19.50;99.90
3246;DHT22;1635;48.000;10.582;2022-09-09T15:16:27;19.50;99.90
3246;DHT22;1635;48.000;10.582;2022-09-09T15:18:57;19.70;99.90
3246;DHT22;1635;48.000;10.582;2022-09-09T15:21:30;19.80;99.90
3246;DHT22;1635;48.000;10.582;2022-09-09T15:24:01;19.90;99.90
3246;DHT22;1635;48.000;10.582;2022-09-09T15:26:28;19.90;99.90
3246;DHT22;1635;48.000;10.582;2022-09-09T15:28:57;19.80;99.90
3246;DHT22;1635;48.000;10.582;2022-09-09T15:31:29;19.60;99.90
3246;DHT22;1635;48.000;10.582;2022-09-09T15:34:02;19.60;99.90
3246;DHT22;1635;48.000;10.582;2022-09-09T15:36:35;19.60;99.90
3246;DHT22;1635;48.000;10.582;2022-09-09T15:39:06;19.70;99.90
3246;DHT22;1635;48.000;10.582;2022-09-09T15:41:37;19.60;99.90
3246;DHT22;1635;48.000;10.582;2022-09-09T15:44:05;19.50;99.90
3246;DHT22;1635;48.000;10.582;2022-09-09T15:46:38;19.40;99.90
3246;DHT22;1635;48.000;10.582;2022-09-09T15:49:19;19.40;99.90
3246;DHT22;1635;48.000;10.582;2022-09-09T15:51:59;19.30;99.90
3246;DHT22;1635;48.000;10.582;2022-09-09T15:54:35;19.30;99.90
3246;DHT22;1635;48.000;10.582;2022-09-09T15:57:07;19.20;99.90
3246;DHT22;1635;48.000;10.582;2022-09-09T15:59:38;19.20;99.90
3246;DHT22;1635;48.000;10.582;2022-09-09T16:02:09;19.00;99.90
3246;DHT22;1635;48.000;10.582;2022-09-09T16:04:37;18.90;99.90
3246;DHT22;1635;48.000;10.582;2022-09-09T16:07:05;19.00;99.90
3246;DHT22;1635;48.000;10.582;2022-09-09T16:09:33;19.00;99.90
3246;DHT22;1635;48.000;10.582;2022-09-09T16:12:04;18.80;99.90
3246;DHT22;1635;48.000;10.582;2022-09-09T16:14:38;18.70;99.90
3246;DHT22;1635;48.000;10.582;2022-09-09T16:17:06;18.70;99.90
3246;DHT22;1635;48.000;10.582;2022-09-09T16:19:35;18.60;99.90
3246;DHT22;1635;48.000;10.582;2022-09-09T16:22:04;18.60;99.90
3246;DHT22;1635;48.000;10.582;2022-09-09T16:24:32;18.60;99.90
3246;DHT22;1635;48.000;10.582;2022-09-09T16:27:00;18.50;99.90
3246;DHT22;1635;48.000;10.582;2022-09-09T16:29:28;18.50;99.90
3246;DHT22;1635;48.000;10.582;2022-09-09T16:31:56;18.40;99.90
3246;DHT22;1635;48.000;10.582;2022-09-09T16:34:30;18.40;99.90
3246;DHT22;1635;48.000;10.582;2022-09-09T16:36:58;18.40;99.90
3246;DHT22;1635;48.000;10.582;2022-09-09T16:39:25;18.30;99.90
3246;DHT22;1635;48.000;10.582;2022-09-09T16:41:53;18.20;99.90
3246;DHT22;1635;48.000;10.582;2022-09-09T16:44:21;18.20;99.90
3246;DHT22;1635;48.000;10.582;2022-09-09T16:46:49;18.10;99.90
3246;DHT22;1635;48.000;10.582;2022-09-09T16:49:26;18.00;99.90
3246;DHT22;1635;48.000;10.582;2022-09-09T16:51:58;17.90;99.90
3246;DHT22;1635;48.000;10.582;2022-09-09T16:54:26;17.80;99.90
3246;DHT22;1635;48.000;10.582;2022-09-09T16:56:54;17.80;99.90
3246;DHT22;1635;48.000;10.582;2022-09-09T16:59:22;17.70;99.90
3246;DHT22;1635;48.000;10.582;2022-09-09T17:01:51;17.60;99.90
3246;DHT22;1635;48.000;10.582;2022-09-09T17:04:25;17.50;99.90
3246;DHT22;1635;48.000;10.582;2022-09-09T17:06:54;17.40;99.90
3246;DHT22;1635;48.000;10.582;2022-09-09T17:09:23;17.30;99.90
3246;DHT22;1635;48.000;10.582;2022-09-09T17:11:51;17.20;99.90
3246;DHT22;1635;48.000;10.582;2022-09-09T17:14:21;17.20;99.90
3246;DHT22;1635;48.000;10.582;2022-09-09T17:16:52;17.10;99.90
3246;DHT22;1635;48.000;10.582;2022-09-09T17:19:21;17.00;99.90
3246;DHT22;1635;48.000;10.582;2022-09-09T17:21:49;17.00;99.90
3246;DHT22;1635;48.000;10.582;2022-09-09T17:24:37;16.80;99.90
3246;DHT22;1635;48.000;10.582;2022-09-09T17:27:07;16.70;99.90
3246;DHT22;1635;48.000;10.582;2022-09-09T17:29:35;16.60;99.90
3246;DHT22;1635;48.000;10.582;2022-09-09T17:32:05;16.40;99.90
3246;DHT22;1635;48.000;10.582;2022-09-09T17:34:34;16.20;99.90
3246;DHT22;1635;48.000;10.582;2022-09-09T17:37:04;16.00;99.90
3246;DHT22;1635;48.000;10.582;2022-09-09T17:39:33;15.90;99.90
3246;DHT22;1635;48.000;10.582;2022-09-09T17:42:02;15.70;99.90
3246;DHT22;1635;48.000;10.582;2022-09-09T17:44:31;15.70;99.90
3246;DHT22;1635;48.000;10.582;2022-09-09T17:47:01;15.60;99.90
3246;DHT22;1635;48.000;10.582;2022-09-09T17:49:32;15.60;99.90
3246;DHT22;1635;48.000;10.582;2022-09-09T17:52:00;15.60;99.90
3246;DHT22;1635;48.000;10.582;2022-09-09T17:54:28;15.50;99.90
3246;DHT22;1635;48.000;10.582;2022-09-09T17:56:56;15.40;99.90
3246;DHT22;1635;48.000;10.582;2022-09-09T17:59:26;15.30;99.90
3246;DHT22;1635;48.000;10.582;2022-09-09T18:01:53;15.30;99.90
3246;DHT22;1635;48.000;10.582;2022-09-09T18:04:23;15.20;99.90